Share

McIntyre, GA

South West Baldwin County (KGAMILLE3) Elev 256 ft | 32.98 °N, 83.12 °W | Change Station

Current weather conditions updated 0 second ago

Clear
Clear
48.2 °F
Feels Like 48 °F
N
0.0
Wind Variable Wind from East
Gusts 0.0 mph
Sunrise 7:01 AM
Sunset 8:03 PM
Moon Waning Gibbous

Tomorrow is forecast to be Warmer than today.

Pressure 30.30 in
Visibility 10.0 miles
Clouds Clear
Windchill 48 °F
Dew Point 38 °F
Humidity 67%
Rainfall 0.00 in
Snow Depth Not available.
UV 0 out of 16
Pollen 9.80 out of 12
Air Quality Not available.
Flu Activity Sporadic
METAR KMLJ 170135Z AUTO 00000KT 10SM CLR 12/M02 A3030 RMK AO2

More Conditions Fewer Conditions

Pressure 30.30 in
Visibility 10.0 miles
Clouds Clear
Windchill 48 °F
Dew Point 38 °F
Humidity 67%
Rainfall 0.00 in
Snow Depth Not available.
UV 0 out of 16
Pollen 9.80 out of 12
Air Quality Not available.
Flu Activity Sporadic
METAR KMLJ 170135Z AUTO 00000KT 10SM CLR 12/M02 A3030 RMK AO2

More Conditions Fewer Conditions

10-Day Forecast

Almanac

Astronomy

Apr. 16, 2014 Rise Set
Actual Time 7:01 AM EDT 8:03 PM EDT
Civil Twilight 6:36 AM EDT 8:29 PM EDT
Nautical Twilight 6:06 AM EDT 8:59 PM EDT
Astronomical Twilight 5:35 AM EDT 9:30 PM EDT
Moon 9:41 PM EDT (4/16) 7:51 AM EDT (4/16)
Length of Visible Light 13h 52m
Length of Day
13h 01m
Tomorrow will be 1m 54s longer.
Waning Gibbous, 96% of the Moon is Illuminated
Today
Waning Gibbous
Apr 22
Last Quarter
Apr 29
New
May 6
First Quarter
May 14
Full

Today's Extremes

State Highs State Lows

Community

  • symphony in blue....
    symphony in blue....
  • Dawn Surprise
    Dawn Surprise
  • Yucca delight
    Yucca delight
  • Sunset inside of the Ocean
    Sunset inside of the Ocean
  • Lunar eclipse 15 April 2014
    Lunar eclipse 15 April 2014

WunderPhotos

Upload Photos

1,701,793 photos uploaded!

WunderBlogs® & News

Nearby

Snow Depth

Station Depth Elevation
No new snow has been reported.

Coastal Water Temperatures

Place Temperature
No Stations Reporting

Earthquake Activity

City Distance Mag. Time & Date
No recent earthquake activity has been reported nearby.
Minimum magnitude displayed is 2.5.

Nearby Weather Stations

Station Location Temp. Windchill Dew Point Humidity Wind Precip. Elev Updated Type
South West Baldwin County, Milledgeville, GA 48.2 °F 48 °F 38 °F 67% East  at  0.0 mph 0.00 in / hr 256 ft 9:46 PM EDT Rapid Fire
RAWS MILLEDGEVILLE GA, Hardwick, GA 47 °F 47 °F 33 °F 57% NE  at  1 mph 0.00 in / hr 395 ft 9:03 PM EDT MADIS
East Baldwin County, Milledgeville, GA 44.2 °F 44 °F 40 °F 84% ESE  at  0.0 mph 0.00 in / hr 469 ft 9:46 PM EDT Rapid Fire
Yard, Haddock, GA 47.9 °F 48 °F 37 °F 65% WSW  at  0.0 mph 0.00 in / hr 472 ft 9:46 PM EDT Rapid Fire
Downtown, Gray, GA 43.5 °F 44 °F 38 °F 82% North  at  0.0 mph 0.00 in / hr 614 ft 9:46 PM EDT Normal

Show More Stations Show Fewer Stations

What do you think?

We're not finished. Please let us know what you like, what you don't like, and what you are still missing.